sensor_id;sensor_type;location;lat;lon;timestamp;P1;durP1;ratioP1;P2;durP2;ratioP2
76536;SDS011;65381;51.254;15.592;2024-01-11T00:00:44;105.43;;;39.63;;
76536;SDS011;65381;51.254;15.592;2024-01-11T00:03:32;100.20;;;39.35;;
76536;SDS011;65381;51.254;15.592;2024-01-11T00:06:00;100.07;;;37.88;;
76536;SDS011;65381;51.254;15.592;2024-01-11T00:08:28;94.15;;;36.35;;
76536;SDS011;65381;51.254;15.592;2024-01-11T00:10:56;97.30;;;38.42;;
76536;SDS011;65381;51.254;15.592;2024-01-11T00:13:24;91.53;;;35.58;;
76536;SDS011;65381;51.254;15.592;2024-01-11T00:15:52;90.03;;;34.95;;
76536;SDS011;65381;51.254;15.592;2024-01-11T00:18:20;91.72;;;35.90;;
76536;SDS011;65381;51.254;15.592;2024-01-11T00:20:49;91.22;;;34.65;;
76536;SDS011;65381;51.254;15.592;2024-01-11T00:23:16;91.35;;;35.33;;
76536;SDS011;65381;51.254;15.592;2024-01-11T00:25:44;85.00;;;33.33;;
76536;SDS011;65381;51.254;15.592;2024-01-11T00:28:12;90.88;;;35.10;;
76536;SDS011;65381;51.254;15.592;2024-01-11T00:30:40;82.40;;;32.33;;
76536;SDS011;65381;51.254;15.592;2024-01-11T00:33:08;85.03;;;32.15;;
76536;SDS011;65381;51.254;15.592;2024-01-11T00:35:36;86.85;;;32.25;;
76536;SDS011;65381;51.254;15.592;2024-01-11T00:38:04;79.07;;;31.25;;
76536;SDS011;65381;51.254;15.592;2024-01-11T00:40:32;78.95;;;31.23;;
76536;SDS011;65381;51.254;15.592;2024-01-11T00:43:00;73.47;;;30.27;;
76536;SDS011;65381;51.254;15.592;2024-01-11T00:45:31;73.78;;;29.75;;
76536;SDS011;65381;51.254;15.592;2024-01-11T00:48:16;77.60;;;30.77;;
76536;SDS011;65381;51.254;15.592;2024-01-11T00:50:44;71.30;;;29.20;;
76536;SDS011;65381;51.254;15.592;2024-01-11T00:53:12;80.55;;;31.80;;
76536;SDS011;65381;51.254;15.592;2024-01-11T00:55:42;74.28;;;29.48;;
76536;SDS011;65381;51.254;15.592;2024-01-11T00:58:10;78.57;;;29.75;;
76536;SDS011;65381;51.254;15.592;2024-01-11T01:00:38;75.85;;;29.08;;
76536;SDS011;65381;51.254;15.592;2024-01-11T01:03:06;77.63;;;29.45;;
76536;SDS011;65381;51.254;15.592;2024-01-11T01:05:34;68.22;;;27.80;;
76536;SDS011;65381;51.254;15.592;2024-01-11T01:08:02;72.22;;;27.95;;
76536;SDS011;65381;51.254;15.592;2024-01-11T01:10:30;74.00;;;29.45;;
76536;SDS011;65381;51.254;15.592;2024-01-11T01:12:58;78.13;;;29.20;;
76536;SDS011;65381;51.254;15.592;2024-01-11T01:15:26;71.25;;;27.88;;
76536;SDS011;65381;51.254;15.592;2024-01-11T01:17:54;68.97;;;27.70;;
76536;SDS011;65381;51.254;15.592;2024-01-11T01:20:22;69.55;;;26.83;;
76536;SDS011;65381;51.254;15.592;2024-01-11T01:22:50;66.00;;;26.65;;
76536;SDS011;65381;51.254;15.592;2024-01-11T01:25:18;64.45;;;25.70;;
76536;SDS011;65381;51.254;15.592;2024-01-11T01:27:45;65.15;;;25.77;;
76536;SDS011;65381;51.254;15.592;2024-01-11T01:30:13;64.18;;;26.02;;
76536;SDS011;65381;51.254;15.592;2024-01-11T01:32:41;64.55;;;23.98;;
76536;SDS011;65381;51.254;15.592;2024-01-11T01:35:10;64.70;;;25.15;;
76536;SDS011;65381;51.254;15.592;2024-01-11T01:37:38;61.58;;;24.25;;
76536;SDS011;65381;51.254;15.592;2024-01-11T01:40:06;61.63;;;23.65;;
76536;SDS011;65381;51.254;15.592;2024-01-11T01:42:34;53.95;;;22.83;;
76536;SDS011;65381;51.254;15.592;2024-01-11T01:45:02;57.53;;;22.80;;
76536;SDS011;65381;51.254;15.592;2024-01-11T01:47:31;59.03;;;23.00;;
76536;SDS011;65381;51.254;15.592;2024-01-11T01:49:59;56.67;;;23.30;;
76536;SDS011;65381;51.254;15.592;2024-01-11T01:52:27;58.35;;;22.67;;
76536;SDS011;65381;51.254;15.592;2024-01-11T01:54:56;56.33;;;22.58;;
76536;SDS011;65381;51.254;15.592;2024-01-11T01:57:25;58.33;;;22.50;;
76536;SDS011;65381;51.254;15.592;2024-01-11T01:59:53;54.97;;;22.40;;
76536;SDS011;65381;51.254;15.592;2024-01-11T02:02:21;55.92;;;21.75;;
76536;SDS011;65381;51.254;15.592;2024-01-11T02:04:50;56.60;;;22.25;;
76536;SDS011;65381;51.254;15.592;2024-01-11T02:07:18;56.63;;;21.23;;
76536;SDS011;65381;51.254;15.592;2024-01-11T02:09:46;51.67;;;20.58;;
76536;SDS011;65381;51.254;15.592;2024-01-11T02:12:15;55.72;;;21.05;;
76536;SDS011;65381;51.254;15.592;2024-01-11T02:14:43;56.25;;;21.08;;
76536;SDS011;65381;51.254;15.592;2024-01-11T02:17:11;56.03;;;21.25;;
76536;SDS011;65381;51.254;15.592;2024-01-11T02:19:40;46.20;;;20.45;;
76536;SDS011;65381;51.254;15.592;2024-01-11T02:25:05;51.88;;;21.20;;
76536;SDS011;65381;51.254;15.592;2024-01-11T02:27:49;51.55;;;22.02;;
76536;SDS011;65381;51.254;15.592;2024-01-11T02:30:17;52.58;;;20.42;;
76536;SDS011;65381;51.254;15.592;2024-01-11T02:32:46;53.70;;;20.80;;
76536;SDS011;65381;51.254;15.592;2024-01-11T02:35:16;46.63;;;20.10;;
76536;SDS011;65381;51.254;15.592;2024-01-11T02:37:45;48.15;;;21.15;;
76536;SDS011;65381;51.254;15.592;2024-01-11T02:40:14;45.40;;;19.38;;
76536;SDS011;65381;51.254;15.592;2024-01-11T02:42:42;49.80;;;19.85;;
76536;SDS011;65381;51.254;15.592;2024-01-11T02:45:11;52.95;;;20.20;;
76536;SDS011;65381;51.254;15.592;2024-01-11T02:47:41;55.53;;;20.80;;
76536;SDS011;65381;51.254;15.592;2024-01-11T02:50:10;50.90;;;20.00;;
76536;SDS011;65381;51.254;15.592;2024-01-11T02:52:40;50.00;;;19.83;;
76536;SDS011;65381;51.254;15.592;2024-01-11T02:55:08;51.22;;;19.58;;
76536;SDS011;65381;51.254;15.592;2024-01-11T02:57:36;44.80;;;18.88;;
76536;SDS011;65381;51.254;15.592;2024-01-11T03:00:04;46.88;;;18.95;;
76536;SDS011;65381;51.254;15.592;2024-01-11T03:02:33;45.97;;;18.27;;
76536;SDS011;65381;51.254;15.592;2024-01-11T03:05:01;40.25;;;17.40;;
76536;SDS011;65381;51.254;15.592;2024-01-11T03:07:29;46.25;;;18.02;;
76536;SDS011;65381;51.254;15.592;2024-01-11T03:09:57;39.60;;;16.38;;
76536;SDS011;65381;51.254;15.592;2024-01-11T03:12:25;45.45;;;18.15;;
76536;SDS011;65381;51.254;15.592;2024-01-11T03:14:53;40.67;;;17.08;;
76536;SDS011;65381;51.254;15.592;2024-01-11T03:17:21;43.38;;;18.05;;
76536;SDS011;65381;51.254;15.592;2024-01-11T03:19:49;43.40;;;17.27;;
76536;SDS011;65381;51.254;15.592;2024-01-11T03:22:16;40.88;;;16.88;;
76536;SDS011;65381;51.254;15.592;2024-01-11T03:24:45;39.17;;;16.77;;
76536;SDS011;65381;51.254;15.592;2024-01-11T03:27:12;40.05;;;16.70;;
76536;SDS011;65381;51.254;15.592;2024-01-11T03:29:40;41.13;;;16.70;;
76536;SDS011;65381;51.254;15.592;2024-01-11T03:32:08;37.35;;;15.93;;
76536;SDS011;65381;51.254;15.592;2024-01-11T03:34:40;42.38;;;16.05;;
76536;SDS011;65381;51.254;15.592;2024-01-11T03:37:08;39.22;;;16.23;;
76536;SDS011;65381;51.254;15.592;2024-01-11T03:39:36;38.08;;;16.52;;
76536;SDS011;65381;51.254;15.592;2024-01-11T03:42:03;37.20;;;16.77;;
76536;SDS011;65381;51.254;15.592;2024-01-11T03:44:32;34.65;;;15.35;;
76536;SDS011;65381;51.254;15.592;2024-01-11T03:47:00;39.10;;;15.57;;
76536;SDS011;65381;51.254;15.592;2024-01-11T03:49:28;39.15;;;14.98;;
76536;SDS011;65381;51.254;15.592;2024-01-11T03:51:56;41.83;;;16.48;;
76536;SDS011;65381;51.254;15.592;2024-01-11T03:54:24;38.33;;;17.02;;
76536;SDS011;65381;51.254;15.592;2024-01-11T03:56:52;36.47;;;15.50;;
76536;SDS011;65381;51.254;15.592;2024-01-11T03:59:20;37.28;;;14.93;;
76536;SDS011;65381;51.254;15.592;2024-01-11T04:01:48;42.22;;;15.63;;
76536;SDS011;65381;51.254;15.592;2024-01-11T04:04:16;42.10;;;16.00;;
76536;SDS011;65381;51.254;15.592;2024-01-11T04:06:44;36.88;;;15.40;;
76536;SDS011;65381;51.254;15.592;2024-01-11T04:09:12;35.67;;;14.90;;
76536;SDS011;65381;51.254;15.592;2024-01-11T04:11:40;39.25;;;16.05;;
76536;SDS011;65381;51.254;15.592;2024-01-11T04:14:08;37.03;;;14.57;;
76536;SDS011;65381;51.254;15.592;2024-01-11T04:16:39;41.35;;;15.27;;
76536;SDS011;65381;51.254;15.592;2024-01-11T04:19:08;41.03;;;15.65;;
76536;SDS011;65381;51.254;15.592;2024-01-11T04:21:36;37.53;;;14.98;;
76536;SDS011;65381;51.254;15.592;2024-01-11T04:24:06;36.25;;;14.50;;
76536;SDS011;65381;51.254;15.592;2024-01-11T04:26:34;35.45;;;15.30;;
76536;SDS011;65381;51.254;15.592;2024-01-11T04:29:02;38.92;;;15.23;;
76536;SDS011;65381;51.254;15.592;2024-01-11T04:31:31;31.75;;;13.60;;
76536;SDS011;65381;51.254;15.592;2024-01-11T04:33:59;32.50;;;14.65;;
76536;SDS011;65381;51.254;15.592;2024-01-11T04:36:26;33.00;;;15.15;;
76536;SDS011;65381;51.254;15.592;2024-01-11T04:38:54;32.35;;;14.57;;
76536;SDS011;65381;51.254;15.592;2024-01-11T04:41:22;35.55;;;15.25;;
76536;SDS011;65381;51.254;15.592;2024-01-11T04:43:50;35.22;;;15.18;;
76536;SDS011;65381;51.254;15.592;2024-01-11T04:46:18;34.13;;;16.20;;
76536;SDS011;65381;51.254;15.592;2024-01-11T04:48:48;35.70;;;15.18;;
76536;SDS011;65381;51.254;15.592;2024-01-11T04:51:17;31.30;;;14.65;;
76536;SDS011;65381;51.254;15.592;2024-01-11T04:53:45;33.58;;;15.07;;
76536;SDS011;65381;51.254;15.592;2024-01-11T04:56:14;36.13;;;14.00;;
76536;SDS011;65381;51.254;15.592;2024-01-11T04:58:43;34.58;;;16.10;;
76536;SDS011;65381;51.254;15.592;2024-01-11T05:01:12;35.45;;;14.93;;
76536;SDS011;65381;51.254;15.592;2024-01-11T05:03:41;37.55;;;15.57;;
76536;SDS011;65381;51.254;15.592;2024-01-11T05:06:17;37.45;;;15.52;;
76536;SDS011;65381;51.254;15.592;2024-01-11T05:08:46;36.05;;;16.25;;
76536;SDS011;65381;51.254;15.592;2024-01-11T05:11:18;35.90;;;16.23;;
76536;SDS011;65381;51.254;15.592;2024-01-11T05:13:47;36.53;;;15.65;;
76536;SDS011;65381;51.254;15.592;2024-01-11T05:16:20;33.83;;;15.77;;
76536;SDS011;65381;51.254;15.592;2024-01-11T05:18:53;32.35;;;14.70;;
76536;SDS011;65381;51.254;15.592;2024-01-11T05:21:23;41.10;;;16.35;;
76536;SDS011;65381;51.254;15.592;2024-01-11T05:23:51;38.88;;;16.50;;
76536;SDS011;65381;51.254;15.592;2024-01-11T05:26:19;35.85;;;15.70;;
76536;SDS011;65381;51.254;15.592;2024-01-11T05:28:48;37.95;;;17.08;;
76536;SDS011;65381;51.254;15.592;2024-01-11T05:31:16;31.02;;;15.65;;
76536;SDS011;65381;51.254;15.592;2024-01-11T05:33:45;45.83;;;16.88;;
76536;SDS011;65381;51.254;15.592;2024-01-11T05:36:14;35.67;;;15.68;;
76536;SDS011;65381;51.254;15.592;2024-01-11T05:38:42;34.10;;;15.98;;
76536;SDS011;65381;51.254;15.592;2024-01-11T05:41:12;31.25;;;15.13;;
76536;SDS011;65381;51.254;15.592;2024-01-11T05:43:42;39.38;;;16.42;;
76536;SDS011;65381;51.254;15.592;2024-01-11T05:46:10;37.50;;;16.15;;
76536;SDS011;65381;51.254;15.592;2024-01-11T05:48:38;36.13;;;15.20;;
76536;SDS011;65381;51.254;15.592;2024-01-11T05:51:06;30.83;;;14.40;;
76536;SDS011;65381;51.254;15.592;2024-01-11T05:53:35;35.55;;;15.30;;
76536;SDS011;65381;51.254;15.592;2024-01-11T05:56:09;36.60;;;15.60;;
76536;SDS011;65381;51.254;15.592;2024-01-11T05:58:39;35.20;;;15.20;;
76536;SDS011;65381;51.254;15.592;2024-01-11T06:01:07;35.33;;;15.80;;
76536;SDS011;65381;51.254;15.592;2024-01-11T06:03:36;32.38;;;14.40;;
76536;SDS011;65381;51.254;15.592;2024-01-11T06:06:04;31.48;;;14.38;;
76536;SDS011;65381;51.254;15.592;2024-01-11T06:08:33;31.75;;;14.05;;
76536;SDS011;65381;51.254;15.592;2024-01-11T06:11:00;33.05;;;14.30;;
76536;SDS011;65381;51.254;15.592;2024-01-11T06:13:28;36.20;;;14.23;;
76536;SDS011;65381;51.254;15.592;2024-01-11T06:15:56;30.38;;;13.60;;
76536;SDS011;65381;51.254;15.592;2024-01-11T06:18:24;30.17;;;14.20;;
76536;SDS011;65381;51.254;15.592;2024-01-11T06:20:52;32.25;;;13.93;;
76536;SDS011;65381;51.254;15.592;2024-01-11T06:23:20;31.40;;;13.07;;
76536;SDS011;65381;51.254;15.592;2024-01-11T06:25:48;28.98;;;13.40;;
76536;SDS011;65381;51.254;15.592;2024-01-11T06:28:16;34.45;;;14.65;;
76536;SDS011;65381;51.254;15.592;2024-01-11T06:30:44;30.23;;;13.23;;
76536;SDS011;65381;51.254;15.592;2024-01-11T06:33:12;30.42;;;14.40;;
76536;SDS011;65381;51.254;15.592;2024-01-11T06:35:40;32.70;;;13.20;;
76536;SDS011;65381;51.254;15.592;2024-01-11T06:38:08;29.10;;;13.40;;
76536;SDS011;65381;51.254;15.592;2024-01-11T06:40:36;34.03;;;13.85;;
76536;SDS011;65381;51.254;15.592;2024-01-11T06:43:04;30.10;;;13.25;;
76536;SDS011;65381;51.254;15.592;2024-01-11T06:45:32;29.50;;;12.95;;
76536;SDS011;65381;51.254;15.592;2024-01-11T06:48:00;33.53;;;14.68;;
76536;SDS011;65381;51.254;15.592;2024-01-11T06:50:28;30.80;;;14.00;;
76536;SDS011;65381;51.254;15.592;2024-01-11T06:52:56;29.23;;;13.20;;
76536;SDS011;65381;51.254;15.592;2024-01-11T06:55:24;27.58;;;14.05;;
76536;SDS011;65381;51.254;15.592;2024-01-11T06:57:52;27.90;;;12.77;;
76536;SDS011;65381;51.254;15.592;2024-01-11T07:00:20;35.55;;;13.73;;
76536;SDS011;65381;51.254;15.592;2024-01-11T07:02:49;29.73;;;12.80;;
76536;SDS011;65381;51.254;15.592;2024-01-11T07:05:16;33.42;;;13.88;;
76536;SDS011;65381;51.254;15.592;2024-01-11T07:07:45;29.92;;;14.00;;
76536;SDS011;65381;51.254;15.592;2024-01-11T07:10:13;27.50;;;12.98;;
76536;SDS011;65381;51.254;15.592;2024-01-11T07:12:41;32.10;;;14.00;;
76536;SDS011;65381;51.254;15.592;2024-01-11T07:15:10;28.75;;;13.38;;
76536;SDS011;65381;51.254;15.592;2024-01-11T07:17:38;31.75;;;13.40;;
76536;SDS011;65381;51.254;15.592;2024-01-11T07:20:07;30.42;;;14.60;;
76536;SDS011;65381;51.254;15.592;2024-01-11T07:22:35;32.88;;;13.93;;
76536;SDS011;65381;51.254;15.592;2024-01-11T07:25:07;34.05;;;13.18;;
76536;SDS011;65381;51.254;15.592;2024-01-11T07:27:36;29.15;;;12.70;;
76536;SDS011;65381;51.254;15.592;2024-01-11T07:30:04;30.10;;;13.02;;
76536;SDS011;65381;51.254;15.592;2024-01-11T07:32:34;30.58;;;14.25;;
76536;SDS011;65381;51.254;15.592;2024-01-11T07:35:01;30.13;;;12.85;;
76536;SDS011;65381;51.254;15.592;2024-01-11T07:37:34;30.77;;;12.80;;
76536;SDS011;65381;51.254;15.592;2024-01-11T07:40:02;26.10;;;12.15;;
76536;SDS011;65381;51.254;15.592;2024-01-11T07:42:31;26.73;;;13.07;;
76536;SDS011;65381;51.254;15.592;2024-01-11T07:44:58;29.70;;;12.93;;
76536;SDS011;65381;51.254;15.592;2024-01-11T07:47:27;26.73;;;12.52;;
76536;SDS011;65381;51.254;15.592;2024-01-11T07:49:54;26.08;;;12.48;;
76536;SDS011;65381;51.254;15.592;2024-01-11T07:52:23;25.73;;;13.00;;
76536;SDS011;65381;51.254;15.592;2024-01-11T07:54:50;28.02;;;13.93;;
76536;SDS011;65381;51.254;15.592;2024-01-11T07:57:18;27.33;;;13.15;;
76536;SDS011;65381;51.254;15.592;2024-01-11T07:59:46;27.23;;;12.88;;
76536;SDS011;65381;51.254;15.592;2024-01-11T08:02:14;25.70;;;12.60;;
76536;SDS011;65381;51.254;15.592;2024-01-11T08:04:43;25.23;;;12.43;;
76536;SDS011;65381;51.254;15.592;2024-01-11T08:07:13;31.25;;;12.68;;
76536;SDS011;65381;51.254;15.592;2024-01-11T08:09:40;23.88;;;11.45;;
76536;SDS011;65381;51.254;15.592;2024-01-11T08:12:13;24.83;;;12.38;;
76536;SDS011;65381;51.254;15.592;2024-01-11T08:14:44;29.85;;;12.80;;
76536;SDS011;65381;51.254;15.592;2024-01-11T08:17:14;26.30;;;11.93;;
76536;SDS011;65381;51.254;15.592;2024-01-11T08:19:42;24.50;;;11.98;;
76536;SDS011;65381;51.254;15.592;2024-01-11T08:22:10;26.73;;;12.80;;
76536;SDS011;65381;51.254;15.592;2024-01-11T08:24:38;26.60;;;11.88;;
76536;SDS011;65381;51.254;15.592;2024-01-11T08:27:06;24.52;;;11.93;;
76536;SDS011;65381;51.254;15.592;2024-01-11T08:29:34;26.10;;;12.20;;
76536;SDS011;65381;51.254;15.592;2024-01-11T08:32:02;27.15;;;12.05;;
76536;SDS011;65381;51.254;15.592;2024-01-11T08:34:49;24.45;;;12.60;;
76536;SDS011;65381;51.254;15.592;2024-01-11T08:37:17;26.48;;;12.55;;
76536;SDS011;65381;51.254;15.592;2024-01-11T08:39:45;24.48;;;11.85;;
76536;SDS011;65381;51.254;15.592;2024-01-11T08:42:14;25.77;;;11.88;;
76536;SDS011;65381;51.254;15.592;2024-01-11T08:44:42;24.42;;;12.23;;
76536;SDS011;65381;51.254;15.592;2024-01-11T08:47:10;26.85;;;12.20;;
76536;SDS011;65381;51.254;15.592;2024-01-11T08:49:38;23.83;;;12.02;;
76536;SDS011;65381;51.254;15.592;2024-01-11T08:52:07;25.17;;;11.27;;
76536;SDS011;65381;51.254;15.592;2024-01-11T08:54:35;23.83;;;11.05;;
76536;SDS011;65381;51.254;15.592;2024-01-11T08:57:03;25.83;;;11.55;;
76536;SDS011;65381;51.254;15.592;2024-01-11T08:59:31;23.30;;;11.38;;
76536;SDS011;65381;51.254;15.592;2024-01-11T09:02:00;26.48;;;12.10;;
76536;SDS011;65381;51.254;15.592;2024-01-11T09:04:41;24.38;;;10.93;;
76536;SDS011;65381;51.254;15.592;2024-01-11T09:07:09;25.25;;;11.88;;
76536;SDS011;65381;51.254;15.592;2024-01-11T09:09:37;25.25;;;11.35;;
76536;SDS011;65381;51.254;15.592;2024-01-11T09:12:17;24.30;;;11.30;;
76536;SDS011;65381;51.254;15.592;2024-01-11T09:14:44;24.00;;;11.35;;
76536;SDS011;65381;51.254;15.592;2024-01-11T09:17:12;27.77;;;12.27;;
76536;SDS011;65381;51.254;15.592;2024-01-11T09:19:40;22.98;;;11.23;;
76536;SDS011;65381;51.254;15.592;2024-01-11T09:22:09;24.30;;;11.30;;
76536;SDS011;65381;51.254;15.592;2024-01-11T09:24:37;26.70;;;11.35;;
76536;SDS011;65381;51.254;15.592;2024-01-11T09:27:06;28.02;;;11.63;;
76536;SDS011;65381;51.254;15.592;2024-01-11T09:29:34;22.73;;;11.48;;
76536;SDS011;65381;51.254;15.592;2024-01-11T09:32:02;22.90;;;12.30;;
76536;SDS011;65381;51.254;15.592;2024-01-11T09:34:30;22.92;;;11.90;;
76536;SDS011;65381;51.254;15.592;2024-01-11T09:36:59;23.13;;;11.70;;
76536;SDS011;65381;51.254;15.592;2024-01-11T09:39:26;24.27;;;12.32;;
76536;SDS011;65381;51.254;15.592;2024-01-11T09:41:58;27.73;;;12.00;;
76536;SDS011;65381;51.254;15.592;2024-01-11T09:44:39;22.25;;;11.25;;
76536;SDS011;65381;51.254;15.592;2024-01-11T09:47:10;23.83;;;11.88;;
76536;SDS011;65381;51.254;15.592;2024-01-11T09:49:43;28.55;;;12.70;;
76536;SDS011;65381;51.254;15.592;2024-01-11T09:52:12;26.92;;;12.88;;
76536;SDS011;65381;51.254;15.592;2024-01-11T09:54:44;24.48;;;11.98;;
76536;SDS011;65381;51.254;15.592;2024-01-11T09:57:12;25.42;;;12.88;;
76536;SDS011;65381;51.254;15.592;2024-01-11T09:59:43;24.05;;;11.70;;
76536;SDS011;65381;51.254;15.592;2024-01-11T10:02:12;27.52;;;12.55;;
76536;SDS011;65381;51.254;15.592;2024-01-11T10:04:42;23.55;;;11.40;;
76536;SDS011;65381;51.254;15.592;2024-01-11T10:07:10;25.77;;;12.43;;
76536;SDS011;65381;51.254;15.592;2024-01-11T10:09:38;23.65;;;11.65;;
76536;SDS011;65381;51.254;15.592;2024-01-11T10:12:06;24.77;;;11.52;;
76536;SDS011;65381;51.254;15.592;2024-01-11T10:14:34;23.23;;;11.90;;
76536;SDS011;65381;51.254;15.592;2024-01-11T10:17:03;26.85;;;12.02;;
76536;SDS011;65381;51.254;15.592;2024-01-11T10:19:32;25.30;;;12.32;;
76536;SDS011;65381;51.254;15.592;2024-01-11T10:22:00;25.02;;;11.55;;
76536;SDS011;65381;51.254;15.592;2024-01-11T10:24:28;28.67;;;12.23;;
76536;SDS011;65381;51.254;15.592;2024-01-11T10:26:57;24.40;;;11.70;;
76536;SDS011;65381;51.254;15.592;2024-01-11T10:29:30;24.42;;;11.85;;
76536;SDS011;65381;51.254;15.592;2024-01-11T10:31:58;22.65;;;10.68;;
76536;SDS011;65381;51.254;15.592;2024-01-11T10:34:26;25.20;;;11.80;;
76536;SDS011;65381;51.254;15.592;2024-01-11T10:36:54;24.13;;;11.55;;
76536;SDS011;65381;51.254;15.592;2024-01-11T10:39:24;22.85;;;10.52;;
76536;SDS011;65381;51.254;15.592;2024-01-11T10:42:05;25.50;;;11.32;;
76536;SDS011;65381;51.254;15.592;2024-01-11T10:44:35;25.23;;;12.15;;
76536;SDS011;65381;51.254;15.592;2024-01-11T10:47:06;22.50;;;10.35;;
76536;SDS011;65381;51.254;15.592;2024-01-11T10:49:37;23.88;;;11.02;;
76536;SDS011;65381;51.254;15.592;2024-01-11T10:52:08;24.70;;;10.95;;
76536;SDS011;65381;51.254;15.592;2024-01-11T10:54:39;22.50;;;11.02;;
76536;SDS011;65381;51.254;15.592;2024-01-11T10:57:09;25.15;;;10.95;;
76536;SDS011;65381;51.254;15.592;2024-01-11T10:59:37;22.08;;;10.18;;
76536;SDS011;65381;51.254;15.592;2024-01-11T11:02:10;23.25;;;9.75;;
76536;SDS011;65381;51.254;15.592;2024-01-11T11:04:41;20.13;;;10.00;;
76536;SDS011;65381;51.254;15.592;2024-01-11T11:07:10;18.83;;;9.93;;
76536;SDS011;65381;51.254;15.592;2024-01-11T11:09:39;21.92;;;9.52;;
76536;SDS011;65381;51.254;15.592;2024-01-11T11:12:11;24.30;;;10.93;;
76536;SDS011;65381;51.254;15.592;2024-01-11T11:14:41;25.67;;;10.48;;
76536;SDS011;65381;51.254;15.592;2024-01-11T11:17:11;26.27;;;11.60;;
76536;SDS011;65381;51.254;15.592;2024-01-11T11:19:42;22.80;;;11.70;;
76536;SDS011;65381;51.254;15.592;2024-01-11T11:22:12;22.10;;;11.02;;
76536;SDS011;65381;51.254;15.592;2024-01-11T11:24:42;21.63;;;10.90;;
76536;SDS011;65381;51.254;15.592;2024-01-11T11:27:13;20.98;;;9.93;;
76536;SDS011;65381;51.254;15.592;2024-01-11T11:29:46;19.90;;;9.90;;
76536;SDS011;65381;51.254;15.592;2024-01-11T11:32:15;24.92;;;11.30;;
76536;SDS011;65381;51.254;15.592;2024-01-11T11:34:44;21.83;;;10.52;;
76536;SDS011;65381;51.254;15.592;2024-01-11T11:37:13;21.77;;;10.25;;
76536;SDS011;65381;51.254;15.592;2024-01-11T11:39:51;20.85;;;9.63;;
76536;SDS011;65381;51.254;15.592;2024-01-11T11:42:21;21.23;;;10.07;;
76536;SDS011;65381;51.254;15.592;2024-01-11T11:44:50;19.80;;;10.05;;
76536;SDS011;65381;51.254;15.592;2024-01-11T11:47:22;20.92;;;10.00;;
76536;SDS011;65381;51.254;15.592;2024-01-11T11:49:57;22.80;;;10.93;;
76536;SDS011;65381;51.254;15.592;2024-01-11T11:52:33;23.05;;;11.02;;
76536;SDS011;65381;51.254;15.592;2024-01-11T11:55:03;26.02;;;10.63;;
76536;SDS011;65381;51.254;15.592;2024-01-11T11:57:36;23.65;;;10.15;;
76536;SDS011;65381;51.254;15.592;2024-01-11T12:00:04;26.65;;;11.20;;
76536;SDS011;65381;51.254;15.592;2024-01-11T12:02:39;23.73;;;10.20;;
76536;SDS011;65381;51.254;15.592;2024-01-11T12:05:08;24.80;;;11.68;;
76536;SDS011;65381;51.254;15.592;2024-01-11T12:07:37;27.42;;;11.52;;
76536;SDS011;65381;51.254;15.592;2024-01-11T12:10:05;24.13;;;10.25;;
76536;SDS011;65381;51.254;15.592;2024-01-11T12:12:34;23.38;;;10.40;;
76536;SDS011;65381;51.254;15.592;2024-01-11T12:15:04;22.10;;;10.68;;
76536;SDS011;65381;51.254;15.592;2024-01-11T12:17:32;23.48;;;11.15;;
76536;SDS011;65381;51.254;15.592;2024-01-11T12:20:00;25.67;;;10.38;;
76536;SDS011;65381;51.254;15.592;2024-01-11T12:22:29;23.60;;;11.13;;
76536;SDS011;65381;51.254;15.592;2024-01-11T12:24:56;21.85;;;10.57;;
76536;SDS011;65381;51.254;15.592;2024-01-11T12:27:24;23.08;;;10.73;;
76536;SDS011;65381;51.254;15.592;2024-01-11T12:29:53;23.45;;;11.40;;
76536;SDS011;65381;51.254;15.592;2024-01-11T12:32:26;22.02;;;10.32;;
76536;SDS011;65381;51.254;15.592;2024-01-11T12:34:54;22.27;;;11.20;;
76536;SDS011;65381;51.254;15.592;2024-01-11T12:37:23;24.55;;;10.43;;
76536;SDS011;65381;51.254;15.592;2024-01-11T12:39:56;23.80;;;11.18;;
76536;SDS011;65381;51.254;15.592;2024-01-11T12:42:29;22.67;;;10.27;;
76536;SDS011;65381;51.254;15.592;2024-01-11T12:44:57;24.00;;;10.18;;
76536;SDS011;65381;51.254;15.592;2024-01-11T12:47:25;23.08;;;10.20;;
76536;SDS011;65381;51.254;15.592;2024-01-11T12:49:54;22.95;;;10.77;;
76536;SDS011;65381;51.254;15.592;2024-01-11T12:52:22;21.00;;;10.30;;
76536;SDS011;65381;51.254;15.592;2024-01-11T12:54:55;21.50;;;10.52;;
76536;SDS011;65381;51.254;15.592;2024-01-11T12:57:23;26.08;;;11.15;;
76536;SDS011;65381;51.254;15.592;2024-01-11T12:59:52;23.33;;;10.85;;
76536;SDS011;65381;51.254;15.592;2024-01-11T13:02:20;24.52;;;10.77;;
76536;SDS011;65381;51.254;15.592;2024-01-11T13:04:50;23.25;;;10.70;;
76536;SDS011;65381;51.254;15.592;2024-01-11T13:07:18;23.10;;;10.48;;
76536;SDS011;65381;51.254;15.592;2024-01-11T13:09:50;22.08;;;10.18;;
76536;SDS011;65381;51.254;15.592;2024-01-11T13:12:18;24.60;;;10.07;;
76536;SDS011;65381;51.254;15.592;2024-01-11T13:14:48;25.00;;;11.32;;
76536;SDS011;65381;51.254;15.592;2024-01-11T13:17:18;19.40;;;9.20;;
76536;SDS011;65381;51.254;15.592;2024-01-11T13:19:46;19.20;;;8.02;;
76536;SDS011;65381;51.254;15.592;2024-01-11T13:22:13;21.27;;;9.15;;
76536;SDS011;65381;51.254;15.592;2024-01-11T13:24:41;20.85;;;10.45;;
76536;SDS011;65381;51.254;15.592;2024-01-11T13:27:09;24.55;;;9.77;;
76536;SDS011;65381;51.254;15.592;2024-01-11T13:29:37;21.58;;;9.60;;
76536;SDS011;65381;51.254;15.592;2024-01-11T13:32:05;26.30;;;9.77;;
76536;SDS011;65381;51.254;15.592;2024-01-11T13:34:33;21.20;;;9.80;;
76536;SDS011;65381;51.254;15.592;2024-01-11T13:37:01;21.90;;;9.82;;
76536;SDS011;65381;51.254;15.592;2024-01-11T13:39:30;23.13;;;10.23;;
76536;SDS011;65381;51.254;15.592;2024-01-11T13:41:58;27.98;;;10.45;;
76536;SDS011;65381;51.254;15.592;2024-01-11T13:44:26;21.85;;;9.45;;
76536;SDS011;65381;51.254;15.592;2024-01-11T13:46:54;18.48;;;9.20;;
76536;SDS011;65381;51.254;15.592;2024-01-11T13:49:22;22.13;;;10.13;;
76536;SDS011;65381;51.254;15.592;2024-01-11T13:51:52;22.67;;;11.30;;
76536;SDS011;65381;51.254;15.592;2024-01-11T13:54:27;21.20;;;9.80;;
76536;SDS011;65381;51.254;15.592;2024-01-11T13:56:55;21.98;;;9.82;;
76536;SDS011;65381;51.254;15.592;2024-01-11T13:59:23;23.90;;;10.13;;
76536;SDS011;65381;51.254;15.592;2024-01-11T14:01:51;22.17;;;10.55;;
76536;SDS011;65381;51.254;15.592;2024-01-11T14:04:19;20.52;;;10.40;;
76536;SDS011;65381;51.254;15.592;2024-01-11T14:06:50;24.60;;;11.32;;
76536;SDS011;65381;51.254;15.592;2024-01-11T14:09:20;21.02;;;10.35;;
76536;SDS011;65381;51.254;15.592;2024-01-11T14:11:48;23.48;;;11.07;;
76536;SDS011;65381;51.254;15.592;2024-01-11T14:14:17;26.00;;;11.25;;
76536;SDS011;65381;51.254;15.592;2024-01-11T14:16:47;22.20;;;10.43;;
76536;SDS011;65381;51.254;15.592;2024-01-11T14:19:15;22.13;;;10.55;;
76536;SDS011;65381;51.254;15.592;2024-01-11T14:21:43;28.48;;;11.68;;